Latest METARs, TAFs and NOTAMs for LHBP


---------------------------------------------------------------------------
	(OBSERVATIONS)
LHBP 280730Z 20008KT 170V240 CAVOK 29/18 Q1014 NOSIG=
LHBP 280700Z 19006KT 160V230 CAVOK 27/18 Q1014 NOSIG=
LHBP 280630Z 17005KT 150V210 CAVOK 26/17 Q1014 NOSIG=
LHBP 280600Z 15005KT 120V190 CAVOK 25/17 Q1014 NOSIG=
LHBP 280530Z 12005KT CAVOK 23/17 Q1014 NOSIG=
LHBP 280500Z 11004KT CAVOK 21/17 Q1014 NOSIG=
LHBP 280430Z 12005KT CAVOK 20/17 Q1014 NOSIG=
---------------------------------------------------------------------------
	(FC)
Sorry, FC For LHBP Not Found
---------------------------------------------------------------------------
	(TERMINAL AREA FORECAST)
LHBP 280515Z 2806/2906 12004KT CAVOK
    BECMG 2806/2809 21008KT
    BECMG 2810/2812 24014KT
    BECMG 2816/2818 21007KT
    BECMG 2822/2901 30009KT=
---------------------------------------------------------------------------
	(NOTAMS)


Sorry, no NOTAM available for LHBP
---------------------------------------------------------------------------